Bei Facebook empfehlenBei Twitter postenGoogle plusPinterest

Das Wetter im Erzgebirge am 20.09.2015

Wetter und Klima am 20.09.2015 Holzhau im Erzgebirge (630m ü.NN)
Letzte gemessene Temperatur und Uhrzeit der Messung23:45:00 Uhr7.80 °C
Temperatur (Maximum / Höchstwert) und Uhrzeit der Messung14:15:00 Uhr14.10 °C
Temperatur (Minimum / Tiefstwert) und Uhrzeit der Messung22:15:006.70 °C
Errechneter Absolutwert der Temperaturschwankungen zwischen Tmin und Tmax des Tages7.40 K
Errechnete Tagesmitteltemperatur9.73229 °C
Gesamt - Niederschlag des Tages (in flüssiger Form)4.15 Liter / m²
Luftdruck (Maximum / Höchstwert) und Zeitpunkt der Messung10:00:00 Uhr1018.00 hPa
Luftdruck (Minimum / Tiefstwert) und Zeitpunkt der Messung23:45:00 Uhr1016.10 hPa
Errechneter Absolutwert der Luftdruckschwankungen des Tages1.90 hPa
Höchste gemessene Windgeschwindigkeit und Uhrzeit der Messung15:00:00 Uhr11.88 km/h
Errechnete Windhäufigkeit in Relation zu den Messwerten des Tages10.41667 %
Niedrigste Windkühle (Windchill) und Zeitpunkt der Messung22:15:00 Uhr6.70 °C
Taupunkt (Maximum / Höchstwert) und Uhrzeit der Messung11:30:00 Uhr11.20 °C
Taupunkt (Minimum / Tiefstwert) und Uhrzeit der Messung22:15:005.20 °C
Anzahl der automatisch eingelesenen Messwerte 96

Detaillierte Wetter- und Klima- Messwerte für den 20.09.2015 in Holzhau im Erzgebirge (630m ü.NN)
ZeitTemperaturLuftdruckRel. LuftfeuchteWindWindrichtungWindchillTaupunktNiederschlag l/m²
23:45:007.80 °C1016.10 hPa92.00 %6.60 °C4.15
23:30:007.60 °C1016.20 hPa92.00 %6.40 °C4.15
23:15:007.50 °C1016.40 hPa91.00 %6.10 °C4.15
23:00:007.30 °C1016.60 hPa91.00 %5.90 °C3.63
22:45:007.20 °C1016.60 hPa91.00 %5.80 °C3.11
22:30:006.90 °C1016.60 hPa91.00 %5.50 °C2.59
22:15:006.70 °C1016.70 hPa90.00 %5.20 °C2.59
22:00:006.80 °C1016.60 hPa90.00 %5.30 °C2.59
21:45:007.20 °C1016.70 hPa90.00 %5.70 °C2.59
21:30:007.30 °C1016.70 hPa89.00 %5.60 °C2.59
21:15:007.80 °C1016.50 hPa89.00 %6.10 °C2.59
21:00:007.90 °C1016.50 hPa89.00 %6.20 °C2.59
20:45:007.90 °C1016.80 hPa89.00 %6.20 °C2.59
20:30:007.90 °C1016.80 hPa88.00 %6.00 °C2.08
20:15:007.80 °C1016.30 hPa88.00 %5.90 °C1.56
20:00:007.60 °C1016.30 hPa88.00 %5.70 °C1.56
19:45:007.50 °C1016.30 hPa87.00 %5.50 °C1.56
19:30:007.70 °C1016.40 hPa86.00 %5.50 °C1.56
19:15:008.10 °C1016.50 hPa86.00 %5.90 °C1.56
19:00:008.50 °C1016.50 hPa85.00 %6.10 °C1.56
18:45:009.10 °C1016.40 hPa85.00 %6.70 °C1.56
18:30:009.60 °C1016.80 hPa84.00 %7.00 °C1.56
18:15:0010.30 °C1017.00 hPa83.00 %5.76 km/hW9.90 °C7.50 °C1.56
18:00:0011.10 °C1016.80 hPa82.00 %8.10 °C1.56
17:45:0011.50 °C1016.70 hPa83.00 %8.70 °C1.56
17:30:0011.40 °C1016.70 hPa83.00 %8.60 °C1.56
17:15:0011.60 °C1016.80 hPa83.00 %8.80 °C1.56
17:00:0011.20 °C1016.70 hPa84.00 %3.24 km/hNW11.20 °C8.60 °C1.56
16:45:0011.10 °C1016.70 hPa84.00 %8.50 °C1.56
16:30:0010.90 °C1016.80 hPa83.00 %8.10 °C1.56
16:15:0011.00 °C1017.00 hPa83.00 %8.20 °C1.56
16:00:0010.60 °C1017.00 hPa82.00 %7.70 °C1.04
15:45:0010.70 °C1017.00 hPa81.00 %7.60 °C1.04
15:30:0011.80 °C1016.80 hPa79.00 %5.40 km/hNW11.70 °C8.30 °C0.52
15:15:0012.00 °C1016.90 hPa76.00 %2.16 km/hNW12.00 °C7.90 °C0.52
15:00:0013.30 °C1017.00 hPa71.00 %11.88 km/hNW12.30 °C8.20 °C0.52
14:45:0013.40 °C1017.00 hPa71.00 %8.30 °C0.52
14:30:0014.00 °C1017.00 hPa71.00 %8.80 °C0.52
14:15:0014.10 °C1017.00 hPa72.00 %5.76 km/hNW14.20 °C9.10 °C0.52
14:00:0013.90 °C1017.00 hPa73.00 %9.10 °C0.52
13:45:0014.10 °C1017.10 hPa74.00 %9.50 °C0.52
13:30:0013.40 °C1017.10 hPa78.00 %9.60 °C0.52
13:15:0013.30 °C1017.20 hPa78.00 %9.50 °C0.52
13:00:0013.30 °C1017.30 hPa79.00 %5.40 km/hWNW13.40 °C9.70 °C0.52
12:45:0013.50 °C1017.40 hPa81.00 %10.30 °C0.52
12:30:0013.30 °C1017.40 hPa84.00 %10.70 °C0.52
12:15:0012.50 °C1017.30 hPa87.00 %10.40 °C0.52
12:00:0012.20 °C1017.40 hPa87.00 %10.10 °C0.52
11:45:0012.80 °C1017.60 hPa88.00 %10.90 °C0.52
11:30:0012.80 °C1017.60 hPa90.00 %11.20 °C0.52
11:15:0012.40 °C1017.50 hPa91.00 %4.32 km/hWSW12.40 °C11.00 °C0.52
11:00:0012.40 °C1017.60 hPa92.00 %11.10 °C0.52
10:45:0012.10 °C1017.80 hPa94.00 %11.20 °C0.52
10:30:0011.80 °C1017.70 hPa94.00 %10.90 °C0.52
10:15:0010.70 °C1017.90 hPa94.00 %9.80 °C0.52
10:00:0010.10 °C1018.00 hPa95.00 %9.30 °C0.52
09:45:009.80 °C1017.90 hPa94.00 %2.16 km/hNNW9.80 °C8.90 °C0.52
09:30:009.50 °C1018.00 hPa94.00 %2.88 km/hNNW9.50 °C8.60 °C0.52
09:15:009.40 °C1017.80 hPa94.00 %8.50 °C 
09:00:009.30 °C1017.80 hPa94.00 %8.40 °C 
08:45:009.30 °C1017.80 hPa94.00 %8.40 °C 
08:30:009.30 °C1017.50 hPa94.00 %8.40 °C 
08:15:009.20 °C1017.40 hPa94.00 %8.30 °C 
08:00:009.10 °C1017.30 hPa94.00 %8.20 °C 
07:45:008.90 °C1017.10 hPa94.00 %8.00 °C 
07:30:008.80 °C1017.20 hPa94.00 %7.90 °C 
07:15:008.60 °C1017.10 hPa93.00 %7.50 °C 
07:00:008.50 °C1017.00 hPa93.00 %7.40 °C 
06:45:008.40 °C1016.90 hPa93.00 %7.30 °C 
06:30:008.40 °C1017.00 hPa93.00 %7.30 °C 
06:15:008.40 °C1016.90 hPa93.00 %7.30 °C 
06:00:008.40 °C1016.90 hPa93.00 %7.30 °C 
05:45:008.40 °C1017.00 hPa93.00 %7.30 °C 
05:30:008.40 °C1017.20 hPa93.00 %7.30 °C 
05:15:008.50 °C1017.10 hPa93.00 %7.40 °C 
05:00:008.80 °C1017.20 hPa93.00 %7.70 °C 
04:45:008.90 °C1017.40 hPa93.00 %7.80 °C 
04:30:008.90 °C1017.40 hPa93.00 %7.80 °C 
04:15:008.90 °C1017.40 hPa93.00 %7.80 °C 
04:00:009.10 °C1017.50 hPa93.00 %8.00 °C 
03:45:009.30 °C1017.50 hPa93.00 %8.20 °C 
03:30:009.30 °C1017.60 hPa93.00 %8.20 °C 
03:15:009.30 °C1017.60 hPa92.00 %8.10 °C 
03:00:009.40 °C1017.60 hPa92.00 %8.20 °C 
02:45:009.50 °C1017.60 hPa92.00 %8.30 °C 
02:30:009.40 °C1017.50 hPa92.00 %8.20 °C 
02:15:009.30 °C1017.50 hPa92.00 %8.10 °C 
02:00:008.90 °C1017.50 hPa92.00 %7.70 °C 
01:45:008.40 °C1017.60 hPa91.00 %7.00 °C 
01:30:008.20 °C1017.50 hPa91.00 %6.80 °C 
01:15:007.90 °C1017.60 hPa91.00 %6.50 °C 
01:00:007.80 °C1017.60 hPa91.00 %6.40 °C 
00:45:007.50 °C1017.80 hPa91.00 %6.10 °C 
00:30:007.40 °C1017.90 hPa90.00 %5.90 °C 
00:15:007.60 °C1017.90 hPa90.00 %6.10 °C 
00:00:007.60 °C1018.00 hPa90.00 %6.10 °C 

Permanenter Link zu dieser Seite: Wetter im Erzgebirge am 20.09.2015
Performance-Info: Die Erstellung der Seite / Statistik(en) / Tabelle(n) erforderte 5 Datenbankserver-Abfrage(n) und dauerte 122 Millisekunden. (Dieser Messwert ist von der Gesamt-Auslastung des Servers abhängig.)
Erzgebirge - Wetter | Erzgebirge - Wetter (Mobilgeräte) | Komplette Klimadatenbank